Skip Navigation LinksHome page > Weather > Current weather Skip Navigation Links

Current Weather

Bom Jesus Da Lapa, Brazil

For information only: do not use for flight planning or navigation.
Latest weather
Observation time Friday, March 27, 2015 1:00 PM BRT
Local time Friday, March 27, 2015 2:15 PM BRT
Flight conditions Visual Meteorological Conditions
Winds
Wind direction North-Northwest (330°)
Wind speed 3 mph
Visibility 6.2 mi.
Sky condition
Ceiling unlimited
Cloud layer scattered clouds 3,000 ft.
Cloud layer scattered clouds 10,000 ft.
Temperature 91°F
Dewpoint 72°F
Altimeter 30.00 in.Hg
Derived measurements
Relative humidity 53%
Heat index 99°F
Density altitude 3758 ft.
METAR SBLP 271600Z 33003KT 9999 SCT030 SCT100 33/22 Q1016

Settings

Location code

InnerDrive.Weather 4.0.5505.0 Release CLR 4.0.30319.34014
Copyright ©2015 Inner Drive Technology. All rights reserved. Portions Copyright ©1986-2015 David Braverman.

Find weather

Site navigation


Skip Navigation Links

Place info

Page info

PayPal - The safer, easier way to pay online!

Return home.

Copyright ©2015 Inner Drive Technology. Purveyors of fine, hand-crafted computer software. Page printed 2015-03-27T17:15:17 UTC.